Piercefield, New York
Current Conditions -  °F | °C
As of 7:23 PM on Sunday 23 Nov 2014 (Local Time) from KSLK Reporting Station
Haze Haze  
Wind Chill: 35°   Ceiling: 10000
Heat Index: 35°   Visibility: 4mi
Dew Point: 34°   Wind: 0mph
Humidity: 96%   Direction: NA
Pressure: 29.97"   Gusts: NA
Location:  44.23°N, 74.57°W
Report Text: KSLK 240023Z AUTO 00000KT 4SM BR OVC100 02/01 A2997 RMK AO2 T00170011
Loading
Personal Weather Stations






























Interactive Weather Map New forecast layout! Learn more

10-Day Weather Forecast

Advertisements
Track Severe Weather on mobile